Time;durP1;ratioP1;P1;durP2;ratioP2;P2;SDS_P1;SDS_P2;PMS_P1;PMS_P2;Temp;Humidity;BMP_temperature;BMP_pressure;BME280_temperature;BME280_humidity;BME280_pressure;Samples;Min_cycle;Max_cycle;Signal;HPM_P1;HPM_P2
2020/12/31 00:01:36;;;;;;;204.23;50.63;;;3.00;99.90;;;;;;4426331;32;20166;-77
2020/12/31 00:04:03;;;;;;;169.93;50.43;;;2.80;99.90;;;;;;4425095;32;20195;-77
2020/12/31 00:06:29;;;;;;;146.27;48.83;;;2.70;99.90;;;;;;4424907;32;20196;-77
2020/12/31 00:08:55;;;;;;;172.63;49.63;;;2.60;99.90;;;;;;4424180;32;20503;-77
2020/12/31 00:11:22;;;;;;;164.00;49.33;;;2.60;99.90;;;;;;4425555;32;20143;-77
2020/12/31 00:13:48;;;;;;;159.67;49.47;;;2.60;99.90;;;;;;4426408;32;20166;-77
2020/12/31 00:16:15;;;;;;;162.83;49.73;;;2.70;99.90;;;;;;4424585;32;20349;-77
2020/12/31 00:18:41;;;;;;;253.63;50.57;;;2.60;99.90;;;;;;4424596;32;20503;-76
2020/12/31 00:21:08;;;;;;;182.07;48.90;;;2.40;99.90;;;;;;4424528;32;20135;-77
2020/12/31 00:23:34;;;;;;;150.13;46.73;;;2.50;99.90;;;;;;4425986;32;20159;-77
2020/12/31 00:26:01;;;;;;;130.90;45.77;;;2.40;99.90;;;;;;4425970;32;20135;-77
2020/12/31 00:28:27;;;;;;;139.63;47.00;;;2.30;99.90;;;;;;4424215;32;20466;-77
2020/12/31 00:30:54;;;;;;;125.77;42.67;;;2.40;99.90;;;;;;4424430;32;20169;-77
2020/12/31 00:33:21;;;;;;;120.50;41.50;;;2.50;99.90;;;;;;4424409;32;20143;-77
2020/12/31 00:35:57;;;;;;;111.50;41.20;;;2.40;99.90;;;;;;4424416;32;20430;-77
2020/12/31 00:38:23;;;;;;;116.63;42.10;;;2.40;99.90;;;;;;4425896;32;20134;-76
2020/12/31 00:40:52;;;;;;;126.50;41.57;;;2.50;99.90;;;;;;4425178;32;20192;-77
2020/12/31 00:43:19;;;;;;;110.03;40.27;;;2.50;99.90;;;;;;4425768;32;20155;-77
2020/12/31 00:45:45;;;;;;;120.37;42.43;;;2.60;99.90;;;;;;4425217;32;20437;-77
2020/12/31 00:48:12;;;;;;;121.47;42.93;;;2.70;99.90;;;;;;4425981;32;20198;-77
2020/12/31 00:50:38;;;;;;;122.63;40.40;;;2.70;99.90;;;;;;4425060;32;20165;-77
2020/12/31 00:53:04;;;;;;;121.90;42.20;;;2.60;99.90;;;;;;4424244;32;20167;-76
2020/12/31 00:55:31;;;;;;;140.10;44.00;;;2.70;99.90;;;;;;4425626;32;20158;-77
2020/12/31 00:57:57;;;;;;;108.83;41.33;;;2.70;99.90;;;;;;4409362;32;20158;-77
2020/12/31 01:00:24;;;;;;;116.63;41.53;;;2.60;99.90;;;;;;4425334;32;20536;-76
2020/12/31 01:02:50;;;;;;;114.90;40.53;;;2.50;99.90;;;;;;4423982;32;20478;-77
2020/12/31 01:05:17;;;;;;;138.77;36.83;;;2.50;99.90;;;;;;4423964;32;20131;-77
2020/12/31 01:07:43;;;;;;;116.77;36.70;;;2.30;99.90;;;;;;4423910;32;20139;-77
2020/12/31 01:10:10;;;;;;;104.83;35.13;;;2.30;99.90;;;;;;4423854;32;20177;-77
2020/12/31 01:12:37;;;;;;;133.10;36.10;;;2.20;99.90;;;;;;4423589;32;20147;-77
2020/12/31 01:15:05;;;;;;;120.23;34.43;;;2.20;99.90;;;;;;4425253;32;20135;-77
2020/12/31 01:17:32;;;;;;;115.63;33.17;;;2.20;99.90;;;;;;4423285;32;20162;-77
2020/12/31 01:19:58;;;;;;;84.47;32.83;;;2.30;99.90;;;;;;4425137;32;20134;-77
2020/12/31 01:22:26;;;;;;;99.77;34.90;;;2.00;99.90;;;;;;4425137;32;20178;-77
2020/12/31 01:24:52;;;;;;;229.57;35.87;;;2.10;99.90;;;;;;4424467;32;20223;-77
2020/12/31 01:27:23;;;;;;;112.00;33.77;;;2.10;99.90;;;;;;4424023;32;20184;-77
2020/12/31 01:29:49;;;;;;;104.63;32.90;;;2.00;99.90;;;;;;4423694;32;20201;-77
2020/12/31 01:32:20;;;;;;;155.47;35.60;;;2.00;99.90;;;;;;4425127;32;20150;-77
2020/12/31 01:34:46;;;;;;;110.60;34.00;;;2.00;99.90;;;;;;4423415;32;20192;-77
2020/12/31 01:37:16;;;;;;;156.40;35.07;;;2.10;99.90;;;;;;4423818;32;20155;-77
2020/12/31 01:39:43;;;;;;;121.60;33.87;;;2.10;99.90;;;;;;4423397;32;20151;-78
2020/12/31 01:42:10;;;;;;;123.47;33.40;;;2.20;99.90;;;;;;4423792;32;20173;-78
2020/12/31 01:44:36;;;;;;;91.67;33.23;;;2.10;99.90;;;;;;4423486;32;20139;-77
2020/12/31 01:47:06;;;;;;;91.77;32.50;;;2.00;99.90;;;;;;4423459;32;20581;-77
2020/12/31 01:49:35;;;;;;;92.07;32.93;;;2.10;99.90;;;;;;4423711;32;20143;-77
2020/12/31 01:52:02;;;;;;;153.27;32.50;;;2.00;99.90;;;;;;4424408;32;20454;-78
2020/12/31 01:54:33;;;;;;;91.70;32.13;;;2.00;99.90;;;;;;4423474;32;20143;-77
2020/12/31 01:56:59;;;;;;;119.77;34.17;;;2.10;99.90;;;;;;4423371;32;20231;-78
2020/12/31 01:59:27;;;;;;;96.30;32.33;;;2.10;99.90;;;;;;4424818;32;20445;-78
2020/12/31 02:01:54;;;;;;;90.93;31.83;;;2.20;99.90;;;;;;4425965;32;20173;-78
2020/12/31 02:04:21;;;;;;;95.33;32.87;;;2.30;99.90;;;;;;4427755;32;20184;-77
2020/12/31 02:06:48;;;;;;;166.80;33.40;;;2.40;99.90;;;;;;4426578;32;20196;-77
2020/12/31 02:09:14;;;;;;;152.80;33.67;;;2.30;99.90;;;;;;4426474;32;20165;-77
2020/12/31 02:11:41;;;;;;;79.20;29.97;;;2.10;99.90;;;;;;4426860;32;20171;-77
2020/12/31 02:14:07;;;;;;;88.83;30.70;;;2.10;99.90;;;;;;4426632;32;20188;-77
2020/12/31 02:16:38;;;;;;;168.07;32.30;;;2.10;99.90;;;;;;4426318;32;20198;-77
2020/12/31 02:19:05;;;;;;;107.27;32.47;;;2.10;99.90;;;;;;4426337;32;20142;-77
2020/12/31 02:21:37;;;;;;;94.07;32.60;;;2.20;99.90;;;;;;4427405;32;20158;-77
2020/12/31 02:24:06;;;;;;;96.83;32.20;;;2.10;99.90;;;;;;4425862;32;20481;-77
2020/12/31 02:26:35;;;;;;;88.73;30.97;;;2.10;99.90;;;;;;4426806;32;20139;-77
2020/12/31 02:29:04;;;;;;;85.37;31.30;;;2.20;99.90;;;;;;4426593;32;20182;-77
2020/12/31 02:31:31;;;;;;;108.13;31.73;;;2.30;99.90;;;;;;4425094;32;20185;-78
2020/12/31 02:33:59;;;;;;;96.27;31.33;;;2.30;99.90;;;;;;4423606;32;20220;-77
2020/12/31 02:36:28;;;;;;;102.93;29.93;;;2.30;99.90;;;;;;4424751;32;20193;-77
2020/12/31 02:38:55;;;;;;;71.67;27.57;;;2.40;99.90;;;;;;4423108;32;20434;-77
2020/12/31 02:41:22;;;;;;;86.10;29.27;;;2.30;99.90;;;;;;4409340;32;20158;-77
2020/12/31 02:43:49;;;;;;;109.47;29.00;;;2.40;99.90;;;;;;4423230;32;20474;-77
2020/12/31 02:46:19;;;;;;;90.13;26.50;;;2.30;99.90;;;;;;4423183;32;20175;-78
2020/12/31 02:48:48;;;;;;;111.47;27.33;;;2.10;99.90;;;;;;4425546;32;20147;-78
2020/12/31 02:51:15;;;;;;;126.10;28.37;;;2.10;99.90;;;;;;4425752;32;20177;-78
2020/12/31 02:53:41;;;;;;;75.17;26.50;;;1.90;99.90;;;;;;4425886;32;20166;-78
2020/12/31 02:56:17;;;;;;;79.60;28.17;;;1.90;99.90;;;;;;4425847;32;20165;-79
2020/12/31 02:58:44;;;;;;;86.87;29.13;;;2.00;99.90;;;;;;4427245;32;20196;-78
2020/12/31 03:01:11;;;;;;;85.27;27.33;;;2.10;99.90;;;;;;4425283;32;20206;-78
2020/12/31 03:03:38;;;;;;;125.87;29.63;;;2.10;99.90;;;;;;4425619;32;20143;-78
2020/12/31 03:06:07;;;;;;;214.73;29.27;;;2.10;99.90;;;;;;4425849;32;20163;-79
2020/12/31 03:08:35;;;;;;;95.77;25.87;;;2.10;99.90;;;;;;4427064;32;20147;-78
2020/12/31 03:11:05;;;;;;;79.97;26.43;;;2.10;99.90;;;;;;4427108;32;20432;-79
2020/12/31 03:13:31;;;;;;;118.07;25.93;;;2.00;99.90;;;;;;4424716;32;20257;-77
2020/12/31 03:15:57;;;;;;;67.00;25.03;;;1.90;99.90;;;;;;4425459;32;20187;-77
2020/12/31 03:18:24;;;;;;;67.07;23.00;;;1.80;99.90;;;;;;4425676;32;20353;-77
2020/12/31 03:20:50;;;;;;;68.87;22.90;;;1.70;99.90;;;;;;4425286;32;20586;-77
2020/12/31 03:23:18;;;;;;;71.20;24.17;;;1.80;99.90;;;;;;4425739;32;20148;-77
2020/12/31 03:25:45;;;;;;;74.87;23.73;;;1.90;99.90;;;;;;4425239;32;20211;-77
2020/12/31 03:28:15;;;;;;;74.37;24.23;;;1.90;99.90;;;;;;4425324;32;20169;-77
2020/12/31 03:30:43;;;;;;;62.63;22.57;;;1.90;99.90;;;;;;4425834;32;20155;-78
2020/12/31 03:33:12;;;;;;;65.10;23.30;;;2.00;99.90;;;;;;4425341;32;20226;-78
2020/12/31 03:35:45;;;;;;;96.50;24.40;;;2.10;99.90;;;;;;4427182;32;20489;-76
2020/12/31 03:38:13;;;;;;;56.33;22.63;;;2.10;99.90;;;;;;4426042;32;20165;-78
2020/12/31 03:40:39;;;;;;;67.93;22.80;;;2.10;99.90;;;;;;4425757;32;20243;-78
2020/12/31 03:43:07;;;;;;;83.10;24.80;;;2.10;99.90;;;;;;4426099;32;20147;-82
2020/12/31 03:45:35;;;;;;;77.43;25.27;;;2.00;99.90;;;;;;4411361;32;20173;-82
2020/12/31 03:48:04;;;;;;;102.30;25.13;;;2.10;99.90;;;;;;4425419;32;20146;-80
2020/12/31 03:50:31;;;;;;;69.63;23.33;;;2.00;99.90;;;;;;4425772;32;20159;-80
2020/12/31 03:52:57;;;;;;;86.27;25.40;;;1.90;99.90;;;;;;4425957;32;20155;-79
2020/12/31 03:55:24;;;;;;;124.27;25.57;;;1.90;99.90;;;;;;4425099;32;20157;-79
2020/12/31 03:57:51;;;;;;;100.87;25.60;;;1.80;99.90;;;;;;4411192;32;20418;-78
2020/12/31 04:00:17;;;;;;;86.20;23.60;;;1.80;99.90;;;;;;4425405;32;20146;-79
2020/12/31 04:02:43;;;;;;;62.77;21.60;;;1.70;99.90;;;;;;4425286;32;20193;-79
2020/12/31 04:05:10;;;;;;;93.77;23.83;;;1.70;99.90;;;;;;4425485;32;20185;-78
2020/12/31 04:07:36;;;;;;;81.07;24.43;;;1.70;99.90;;;;;;4425247;32;20225;-79
2020/12/31 04:10:04;;;;;;;63.37;23.53;;;1.70;99.90;;;;;;4425313;32;20150;-82
2020/12/31 04:12:31;;;;;;;62.53;23.50;;;1.80;99.90;;;;;;4425170;32;20189;-78
2020/12/31 04:14:57;;;;;;;69.00;25.00;;;1.80;99.90;;;;;;4426497;32;20189;-79
2020/12/31 04:17:24;;;;;;;74.80;25.07;;;1.90;99.90;;;;;;4424949;32;20391;-79
2020/12/31 04:19:50;;;;;;;84.30;23.87;;;2.00;99.90;;;;;;4425276;32;20170;-79
2020/12/31 04:22:17;;;;;;;56.23;22.33;;;1.80;99.90;;;;;;4426384;32;20422;-79
2020/12/31 04:24:44;;;;;;;47.83;20.30;;;1.90;99.90;;;;;;4426172;32;20151;-80
2020/12/31 04:27:11;;;;;;;51.57;19.87;;;2.00;99.90;;;;;;4426628;32;20162;-81
2020/12/31 04:29:37;;;;;;;41.67;17.37;;;2.00;99.90;;;;;;4424640;32;20155;-82
2020/12/31 04:32:05;;;;;;;107.60;20.07;;;1.90;99.90;;;;;;4426470;32;20472;-81
2020/12/31 04:34:31;;;;;;;41.37;17.87;;;1.80;99.90;;;;;;4424777;32;20147;-80
2020/12/31 04:36:58;;;;;;;43.43;17.43;;;1.70;99.90;;;;;;4424564;32;20421;-81
2020/12/31 04:39:24;;;;;;;64.93;19.00;;;1.60;99.90;;;;;;4424813;32;20159;-80
2020/12/31 04:41:57;;;;;;;47.77;18.53;;;1.60;99.90;;;;;;4424980;32;20170;-76
2020/12/31 04:44:24;;;;;;;55.57;20.43;;;1.60;99.90;;;;;;4424775;32;20150;-78
2020/12/31 04:46:54;;;;;;;119.07;19.97;;;1.70;99.90;;;;;;4411815;32;20430;-80
2020/12/31 04:49:33;;;;;;;64.50;19.67;;;1.70;99.90;;;;;;4425626;32;20420;-79
2020/12/31 04:52:00;;;;;;;60.70;19.37;;;1.70;99.90;;;;;;4426218;32;20212;-80
2020/12/31 04:54:27;;;;;;;79.03;20.93;;;1.70;99.90;;;;;;4424058;32;20139;-80
2020/12/31 04:56:54;;;;;;;89.27;22.70;;;1.70;99.90;;;;;;4425801;32;20412;-82
2020/12/31 04:59:20;;;;;;;91.70;21.67;;;1.70;99.90;;;;;;4424089;32;20139;-80
2020/12/31 05:01:47;;;;;;;71.97;21.70;;;1.60;99.90;;;;;;4425943;32;20196;-81
2020/12/31 05:04:13;;;;;;;60.00;21.90;;;1.60;99.90;;;;;;4424566;32;20461;-81
2020/12/31 05:06:40;;;;;;;61.83;21.60;;;1.60;99.90;;;;;;4424844;32;20526;-78
2020/12/31 05:09:17;;;;;;;68.90;23.07;;;1.60;99.90;;;;;;4424776;32;20147;-78
2020/12/31 05:11:49;;;;;;;60.53;21.93;;;1.70;99.90;;;;;;4425502;32;20203;-78
2020/12/31 05:14:35;;;;;;;64.23;21.33;;;1.60;99.90;;;;;;4424438;32;20158;-78
2020/12/31 05:17:12;;;;;;;59.87;20.07;;;1.60;99.90;;;;;;4424380;32;20193;-78
2020/12/31 05:19:38;;;;;;;59.83;20.90;;;1.60;99.90;;;;;;4425316;32;20151;-78
2020/12/31 05:22:15;;;;;;;52.63;20.73;;;1.70;99.90;;;;;;4424368;32;20143;-78
2020/12/31 05:24:47;;;;;;;58.77;21.73;;;1.70;99.90;;;;;;4425244;32;20151;-80
2020/12/31 05:27:17;;;;;;;58.73;22.17;;;1.80;99.90;;;;;;4425367;32;20197;-76
2020/12/31 05:29:53;;;;;;;62.77;23.40;;;1.80;99.90;;;;;;4424673;32;20436;-79
2020/12/31 05:32:21;;;;;;;64.83;23.33;;;1.80;99.90;;;;;;4423679;32;20194;-78
2020/12/31 05:34:49;;;;;;;71.20;22.97;;;1.90;99.90;;;;;;4423864;32;20184;-78
2020/12/31 05:37:16;;;;;;;61.57;22.67;;;1.90;99.90;;;;;;4423396;32;20230;-78
2020/12/31 05:40:07;;;;;;;64.33;23.10;;;2.00;99.90;;;;;;4424018;32;20477;-79
2020/12/31 05:42:36;;;;;;;72.13;22.70;;;2.00;99.90;;;;;;4422605;32;20167;-78
2020/12/31 05:45:11;;;;;;;68.60;21.60;;;1.90;99.90;;;;;;4424025;32;20211;-78
2020/12/31 05:47:49;;;;;;;59.27;22.20;;;1.80;99.90;;;;;;4424518;32;20445;-78
2020/12/31 05:50:23;;;;;;;86.57;22.87;;;1.90;99.90;;;;;;4425614;32;20161;-76
2020/12/31 05:52:50;;;;;;;56.03;21.00;;;1.60;99.90;;;;;;4424314;32;20215;-77
2020/12/31 05:55:19;;;;;;;55.77;21.07;;;1.70;99.90;;;;;;4425537;32;20226;-74
2020/12/31 05:57:51;;;;;;;66.63;21.23;;;1.80;99.90;;;;;;4423533;32;20519;-76
2020/12/31 06:00:27;;;;;;;55.67;21.77;;;1.80;99.90;;;;;;4425764;32;20393;-76
2020/12/31 06:02:56;;;;;;;65.30;19.80;;;1.80;99.90;;;;;;4424314;32;20139;-76
2020/12/31 06:05:23;;;;;;;60.53;19.60;;;1.60;99.90;;;;;;4424111;32;20147;-76
2020/12/31 06:07:58;;;;;;;52.90;20.30;;;1.60;99.90;;;;;;4424114;32;20440;-74
2020/12/31 06:10:31;;;;;;;49.30;19.37;;;1.50;99.90;;;;;;4425739;32;20154;-75
2020/12/31 06:13:03;;;;;;;58.70;20.00;;;1.50;99.90;;;;;;4423581;32;20222;-76
2020/12/31 06:15:32;;;;;;;43.13;17.37;;;1.50;99.90;;;;;;4424490;32;20230;-75
2020/12/31 06:18:00;;;;;;;59.67;19.27;;;1.50;99.90;;;;;;4423840;32;20143;-76
2020/12/31 06:20:29;;;;;;;46.63;18.10;;;1.50;99.90;;;;;;4424289;32;20186;-75
2020/12/31 06:23:06;;;;;;;41.20;16.57;;;1.40;99.90;;;;;;4425359;32;20167;-76
2020/12/31 06:25:34;;;;;;;46.67;18.80;;;1.40;99.90;;;;;;4425645;32;20158;-76
2020/12/31 06:28:03;;;;;;;41.97;17.37;;;1.40;99.90;;;;;;4423665;32;20143;-76
2020/12/31 06:30:30;;;;;;;49.93;16.40;;;1.50;99.90;;;;;;4425351;32;20544;-76
2020/12/31 06:33:00;;;;;;;51.10;16.73;;;1.50;99.90;;;;;;4423712;32;20163;-75
2020/12/31 06:35:27;;;;;;;43.30;15.70;;;1.50;99.90;;;;;;4425211;32;20399;-76
2020/12/31 06:38:01;;;;;;;42.23;15.70;;;1.50;99.90;;;;;;4425314;32;20197;-76
2020/12/31 06:40:30;;;;;;;58.63;16.93;;;1.60;99.90;;;;;;4424920;32;20380;-76
2020/12/31 06:43:15;;;;;;;41.97;15.90;;;1.60;99.90;;;;;;4423924;32;20189;-77
2020/12/31 06:45:43;;;;;;;39.50;15.23;;;1.40;99.90;;;;;;4425538;32;20445;-77
2020/12/31 06:48:25;;;;;;;42.33;16.00;;;1.30;99.90;;;;;;4424162;32;20186;-77
2020/12/31 06:51:12;;;;;;;41.30;15.93;;;1.40;99.90;;;;;;4426596;32;20139;-77
2020/12/31 06:53:47;;;;;;;46.67;16.00;;;1.40;99.90;;;;;;4428044;32;20147;-77
2020/12/31 06:56:44;;;;;;;60.30;16.63;;;1.40;99.90;;;;;;4427697;32;20210;-77
2020/12/31 06:59:23;;;;;;;46.87;16.60;;;1.30;99.90;;;;;;4426824;32;20402;-77
2020/12/31 07:01:50;;;;;;;48.10;15.57;;;1.30;99.90;;;;;;4427833;32;20497;-76
2020/12/31 07:04:30;;;;;;;38.63;14.70;;;1.20;99.90;;;;;;4426119;32;20499;-77
2020/12/31 07:06:58;;;;;;;50.37;16.03;;;1.10;99.90;;;;;;4427954;32;20200;-76
2020/12/31 07:09:32;;;;;;;46.93;14.60;;;1.00;99.90;;;;;;4426191;32;20184;-76
2020/12/31 07:12:07;;;;;;;46.23;16.60;;;1.10;99.90;;;;;;4427679;32;20154;-76
2020/12/31 07:14:35;;;;;;;52.10;15.40;;;1.20;99.90;;;;;;4426405;32;20211;-76
2020/12/31 07:17:07;;;;;;;37.60;13.57;;;1.00;99.90;;;;;;4427272;32;20139;-76
2020/12/31 07:19:34;;;;;;;50.00;14.17;;;0.90;99.90;;;;;;4426989;32;20467;-76
2020/12/31 07:22:10;;;;;;;43.03;16.20;;;0.90;99.90;;;;;;4425874;32;20469;-83
2020/12/31 07:24:50;;;;;;;46.03;15.60;;;0.90;99.90;;;;;;4426101;32;20198;-82
2020/12/31 07:27:20;;;;;;;53.60;14.77;;;1.00;99.90;;;;;;4425873;32;20173;-83
2020/12/31 07:30:04;;;;;;;37.07;14.67;;;0.90;99.90;;;;;;4425762;32;20185;-82
2020/12/31 07:33:06;;;;;;;58.33;14.77;;;1.00;99.90;;;;;;4425868;32;20159;-77
2020/12/31 07:35:41;;;;;;;49.27;14.57;;;1.00;99.90;;;;;;4412363;32;20516;-77
2020/12/31 07:38:08;;;;;;;58.30;13.87;;;0.80;99.90;;;;;;4425983;32;20507;-77
2020/12/31 07:40:43;;;;;;;35.23;13.00;;;0.80;99.90;;;;;;4426608;32;20414;-77
2020/12/31 07:43:15;;;;;;;43.97;13.83;;;0.90;99.90;;;;;;4426859;32;20213;-80
2020/12/31 07:45:49;;;;;;;43.20;14.67;;;0.80;99.90;;;;;;4425497;32;20147;-84
2020/12/31 07:48:17;;;;;;;39.47;14.73;;;0.90;99.90;;;;;;4427183;32;20195;-76
2020/12/31 07:50:44;;;;;;;42.03;15.03;;;1.00;99.90;;;;;;4425651;32;20208;-76
2020/12/31 07:53:12;;;;;;;39.80;14.90;;;1.00;99.90;;;;;;4425140;32;20465;-77
2020/12/31 07:55:50;;;;;;;37.20;14.30;;;1.10;99.90;;;;;;4425750;32;20143;-77
2020/12/31 07:58:20;;;;;;;41.40;14.27;;;1.20;99.90;;;;;;4425268;32;20150;-77
2020/12/31 08:01:04;;;;;;;35.67;14.07;;;1.20;99.90;;;;;;4427017;32;20165;-77
2020/12/31 08:03:31;;;;;;;41.63;13.63;;;1.20;99.90;;;;;;4426880;32;20223;-77
2020/12/31 08:05:59;;;;;;;46.13;13.83;;;1.30;99.90;;;;;;4411018;32;20174;-77
2020/12/31 08:08:26;;;;;;;34.77;14.10;;;1.20;99.90;;;;;;4425921;32;20203;-77
2020/12/31 08:10:53;;;;;;;34.90;13.70;;;1.30;99.90;;;;;;4425291;32;20480;-77
2020/12/31 08:13:20;;;;;;;33.37;13.07;;;1.30;99.90;;;;;;4426450;32;20418;-77
2020/12/31 08:15:50;;;;;;;32.30;13.60;;;1.40;99.90;;;;;;4425154;32;20477;-79
2020/12/31 08:18:17;;;;;;;34.33;13.90;;;1.40;99.90;;;;;;4425073;32;20203;-78
2020/12/31 08:20:45;;;;;;;106.40;14.33;;;1.30;99.90;;;;;;4425031;32;20135;-77
2020/12/31 08:23:18;;;;;;;61.50;12.37;;;1.20;99.90;;;;;;4426610;32;20364;-76
2020/12/31 08:25:50;;;;;;;42.37;12.07;;;0.90;99.90;;;;;;4426993;32;20445;-76
2020/12/31 08:28:19;;;;;;;36.40;13.10;;;1.00;99.90;;;;;;4424661;32;20158;-82
2020/12/31 08:30:46;;;;;;;34.73;12.83;;;1.10;99.90;;;;;;4426093;32;20409;-76
2020/12/31 08:33:13;;;;;;;34.17;12.57;;;1.10;99.90;;;;;;4425090;32;20196;-77
2020/12/31 08:35:42;;;;;;;35.37;12.57;;;1.10;99.90;;;;;;4424610;32;20178;-76
2020/12/31 08:38:13;;;;;;;48.17;13.17;;;1.20;99.90;;;;;;4425656;32;20139;-77
2020/12/31 08:40:42;;;;;;;33.10;12.50;;;1.20;99.90;;;;;;4426377;32;20142;-76
2020/12/31 08:43:23;;;;;;;34.23;13.13;;;1.20;99.90;;;;;;4426232;32;20217;-77
2020/12/31 08:45:51;;;;;;;35.30;12.23;;;1.30;99.90;;;;;;4424803;32;20439;-76
2020/12/31 08:48:24;;;;;;;37.53;12.60;;;1.10;99.90;;;;;;4425464;32;20139;-76
2020/12/31 08:51:04;;;;;;;38.63;12.87;;;1.00;99.90;;;;;;4424726;32;20143;-75
2020/12/31 08:53:48;;;;;;;74.80;13.40;;;1.00;99.90;;;;;;4426566;32;20202;-77
2020/12/31 08:56:15;;;;;;;39.70;13.40;;;0.80;99.90;;;;;;4426432;32;20142;-77
2020/12/31 08:58:42;;;;;;;30.47;12.53;;;0.80;99.90;;;;;;4425965;32;20143;-75
2020/12/31 09:01:24;;;;;;;43.97;13.10;;;0.90;99.90;;;;;;4425757;32;20153;-76
2020/12/31 09:04:03;;;;;;;40.30;14.03;;;0.90;99.90;;;;;;4426146;32;20601;-76
2020/12/31 09:06:30;;;;;;;40.30;12.43;;;0.80;99.90;;;;;;4425548;32;20204;-80
2020/12/31 09:08:57;;;;;;;33.87;13.27;;;0.90;99.90;;;;;;4424656;32;20193;-82
2020/12/31 09:11:25;;;;;;;35.43;12.67;;;1.00;99.90;;;;;;4424362;32;20218;-80
2020/12/31 09:13:53;;;;;;;32.17;12.27;;;1.00;99.90;;;;;;4425397;32;20139;-78
2020/12/31 09:16:19;;;;;;;45.47;13.33;;;1.00;99.90;;;;;;4425908;32;20208;-77
2020/12/31 09:18:57;;;;;;;35.33;12.97;;;1.10;99.90;;;;;;4426142;32;20161;-77
2020/12/31 09:21:30;;;;;;;34.13;12.60;;;1.20;99.90;;;;;;4424653;32;20154;-77
2020/12/31 09:23:56;;;;;;;33.27;13.07;;;1.10;99.90;;;;;;4426426;32;20225;-75
2020/12/31 09:26:25;;;;;;;38.77;13.23;;;1.10;99.90;;;;;;4424559;32;20372;-77
2020/12/31 09:28:51;;;;;;;41.77;13.57;;;1.10;99.90;;;;;;4411101;32;20179;-79
2020/12/31 09:31:22;;;;;;;36.37;12.93;;;1.20;99.90;;;;;;4425270;32;20477;-77
2020/12/31 09:33:50;;;;;;;37.00;14.30;;;1.20;99.90;;;;;;4425267;32;20199;-79
2020/12/31 09:36:24;;;;;;;38.80;13.87;;;1.40;99.90;;;;;;4424418;32;20342;-78
2020/12/31 09:38:52;;;;;;;43.63;14.77;;;1.50;99.90;;;;;;4426004;32;20158;-77
2020/12/31 09:41:19;;;;;;;38.83;13.43;;;1.60;99.90;;;;;;4424464;32;20154;-78
2020/12/31 09:43:46;;;;;;;34.53;12.80;;;1.60;99.90;;;;;;4425954;32;20208;-78
2020/12/31 09:46:22;;;;;;;36.67;13.00;;;1.60;99.90;;;;;;4425883;32;20181;-78
2020/12/31 09:48:49;;;;;;;36.83;13.37;;;1.60;99.90;;;;;;4425873;32;20213;-78
2020/12/31 09:51:16;;;;;;;35.93;13.53;;;1.60;99.90;;;;;;4424416;32;20164;-78
2020/12/31 09:53:43;;;;;;;40.20;13.50;;;1.50;99.90;;;;;;4424167;32;20508;-79
2020/12/31 09:56:11;;;;;;;34.70;13.60;;;1.50;99.90;;;;;;4425870;32;20209;-79
2020/12/31 09:58:41;;;;;;;41.77;13.83;;;1.40;99.90;;;;;;4424190;32;20143;-78
2020/12/31 10:01:07;;;;;;;38.27;13.30;;;1.50;99.90;;;;;;4425617;32;20217;-78
2020/12/31 10:03:34;;;;;;;39.20;14.17;;;1.50;99.90;;;;;;4424470;32;20140;-78
2020/12/31 10:06:01;;;;;;;41.47;14.50;;;1.60;99.90;;;;;;4424365;32;20357;-78
2020/12/31 10:08:28;;;;;;;41.93;14.60;;;1.60;99.90;;;;;;4424675;32;20139;-79
2020/12/31 10:10:55;;;;;;;38.33;13.77;;;1.70;99.90;;;;;;4425183;32;20196;-77
2020/12/31 10:13:21;;;;;;;38.50;13.97;;;1.70;99.90;;;;;;4424355;32;20174;-79
2020/12/31 10:15:47;;;;;;;36.60;13.87;;;1.70;99.90;;;;;;4423475;32;20434;-77
2020/12/31 10:18:14;;;;;;;42.17;14.50;;;1.60;99.90;;;;;;4425413;32;20487;-78
2020/12/31 10:20:40;;;;;;;41.57;14.33;;;1.70;99.90;;;;;;4423081;32;20468;-79
2020/12/31 10:23:07;;;;;;;39.90;13.97;;;1.70;99.90;;;;;;4424692;32;20191;-79
2020/12/31 10:25:33;;;;;;;39.37;13.93;;;1.80;99.90;;;;;;4427449;32;20494;-79
2020/12/31 10:27:59;;;;;;;43.03;14.70;;;1.90;99.90;;;;;;4426880;32;20457;-79
2020/12/31 10:30:26;;;;;;;39.27;14.47;;;1.90;99.90;;;;;;4420783;32;20150;-80
2020/12/31 10:32:52;;;;;;;47.97;15.33;;;1.80;99.90;;;;;;4426812;32;20431;-78
2020/12/31 10:35:19;;;;;;;50.77;15.40;;;1.80;99.90;;;;;;4427886;32;20473;-79
2020/12/31 10:37:45;;;;;;;40.63;14.63;;;1.70;99.90;;;;;;4426620;32;20135;-79
2020/12/31 10:40:11;;;;;;;44.07;14.70;;;1.70;99.90;;;;;;4427074;32;20151;-77
2020/12/31 10:42:38;;;;;;;45.40;15.60;;;1.70;99.90;;;;;;4426537;32;20162;-77
2020/12/31 10:45:04;;;;;;;47.63;15.03;;;1.80;99.90;;;;;;4427086;32;20143;-79
2020/12/31 10:50:28;;;;;;;53.77;16.67;;;1.90;99.90;;;;;;4711791;27;20204;-72
2020/12/31 10:52:55;;;;;;;45.87;15.53;;;2.00;99.90;;;;;;4365835;32;20217;-72
2020/12/31 10:55:21;;;;;;;44.50;14.93;;;2.10;99.90;;;;;;4366025;32;20152;-73
2020/12/31 10:57:48;;;;;;;51.50;17.10;;;2.00;99.90;;;;;;4367382;32;20197;-73
2020/12/31 11:00:14;;;;;;;47.67;16.77;;;1.80;99.90;;;;;;4367291;32;20483;-73
2020/12/31 11:02:42;;;;;;;48.00;16.17;;;1.80;99.90;;;;;;4366934;32;20156;-73
2020/12/31 11:05:08;;;;;;;55.33;18.00;;;1.70;99.90;;;;;;4365536;32;20497;-73
2020/12/31 11:07:35;;;;;;;51.30;17.80;;;1.60;99.90;;;;;;4367585;32;20176;-73
2020/12/31 11:10:01;;;;;;;53.53;18.13;;;1.60;99.90;;;;;;4366028;32;20377;-73
2020/12/31 11:12:27;;;;;;;59.03;19.60;;;1.80;99.90;;;;;;4366042;32;20211;-73
2020/12/31 11:14:54;;;;;;;53.07;19.00;;;1.80;99.90;;;;;;4365820;32;20144;-73
2020/12/31 11:17:20;;;;;;;52.83;18.23;;;1.90;99.90;;;;;;4365973;32;20200;-74
2020/12/31 11:19:46;;;;;;;51.77;18.87;;;2.00;99.90;;;;;;4366333;32;20160;-73
2020/12/31 11:22:13;;;;;;;49.13;18.73;;;2.00;99.90;;;;;;4365925;32;20152;-73
2020/12/31 11:24:39;;;;;;;56.87;18.10;;;2.10;99.90;;;;;;4365722;32;20152;-74
2020/12/31 11:27:06;;;;;;;51.30;18.10;;;2.20;99.90;;;;;;4365817;32;20397;-73
2020/12/31 11:29:33;;;;;;;50.03;19.10;;;2.20;99.90;;;;;;4365601;32;20156;-73
2020/12/31 11:32:01;;;;;;;49.67;19.37;;;2.20;99.90;;;;;;4365066;32;20448;-73
2020/12/31 11:34:27;;;;;;;47.57;18.60;;;2.30;99.90;;;;;;4365453;32;20152;-72
2020/12/31 11:36:55;;;;;;;44.43;18.03;;;2.20;99.90;;;;;;4365841;32;20187;-73
2020/12/31 11:39:22;;;;;;;41.73;17.53;;;2.20;99.90;;;;;;4365694;32;20153;-73
2020/12/31 11:41:48;;;;;;;43.13;18.33;;;2.20;99.90;;;;;;4365623;32;20148;-72
2020/12/31 11:44:15;;;;;;;43.80;18.90;;;2.20;99.90;;;;;;4365048;32;20199;-73
2020/12/31 11:46:45;;;;;;;40.17;17.83;;;2.10;99.90;;;;;;4365392;32;20509;-72
2020/12/31 11:49:11;;;;;;;45.77;20.20;;;2.10;99.90;;;;;;4365072;32;20165;-74
2020/12/31 11:51:37;;;;;;;47.03;19.80;;;2.20;99.90;;;;;;4365516;32;20187;-75
2020/12/31 11:54:04;;;;;;;46.73;19.97;;;2.20;99.90;;;;;;4365834;32;20168;-75
2020/12/31 11:56:30;;;;;;;51.80;21.43;;;2.40;99.90;;;;;;4365576;32;20178;-77
2020/12/31 11:58:57;;;;;;;52.67;21.20;;;2.50;99.90;;;;;;4357421;32;20600;-76
2020/12/31 12:01:24;;;;;;;49.73;20.83;;;2.60;99.90;;;;;;4360337;32;20151;-75
2020/12/31 12:03:50;;;;;;;43.67;19.27;;;2.60;99.90;;;;;;4359535;32;20179;-76
2020/12/31 12:06:17;;;;;;;40.67;18.73;;;2.50;99.90;;;;;;4364455;32;20179;-76
2020/12/31 12:08:43;;;;;;;46.27;20.77;;;2.50;99.90;;;;;;4362429;32;20164;-76
2020/12/31 12:11:09;;;;;;;42.53;20.47;;;2.50;99.90;;;;;;4363106;32;20160;-76
2020/12/31 12:13:36;;;;;;;45.17;20.30;;;2.40;99.90;;;;;;4362645;32;20194;-77
2020/12/31 12:16:02;;;;;;;47.57;19.43;;;2.50;99.90;;;;;;4362653;32;20513;-77
2020/12/31 12:18:29;;;;;;;46.70;19.87;;;2.40;99.90;;;;;;4363300;32;20160;-77
2020/12/31 12:21:18;;;;;;;45.53;20.27;;;2.50;99.90;;;;;;4363452;32;20164;-76
2020/12/31 12:23:45;;;;;;;47.17;19.33;;;2.60;99.90;;;;;;4365025;32;20468;-77
2020/12/31 12:26:16;;;;;;;50.20;20.83;;;2.60;99.90;;;;;;4364955;32;20188;-76
2020/12/31 12:28:42;;;;;;;54.47;21.60;;;2.60;99.90;;;;;;4366308;32;20525;-77
2020/12/31 12:31:09;;;;;;;48.77;19.87;;;2.50;99.90;;;;;;4364959;32;20144;-76
2020/12/31 12:33:35;;;;;;;49.10;21.27;;;2.50;99.90;;;;;;4359944;32;20263;-76
2020/12/31 12:36:03;;;;;;;45.60;20.63;;;2.50;99.90;;;;;;4364823;32;20160;-77
2020/12/31 12:38:29;;;;;;;40.50;17.37;;;2.50;99.90;;;;;;4362773;32;20207;-77
2020/12/31 12:40:56;;;;;;;42.33;17.93;;;2.50;99.90;;;;;;4364371;32;20175;-78
2020/12/31 12:43:22;;;;;;;44.17;18.53;;;2.40;99.90;;;;;;4365578;32;20172;-79
2020/12/31 12:45:48;;;;;;;46.43;18.77;;;2.40;99.90;;;;;;4364088;32;20192;-77
2020/12/31 12:48:15;;;;;;;45.40;19.50;;;2.40;99.90;;;;;;4364267;32;20195;-76